createdAt,value
2023-01-20T00:01:38.170Z,3.40
2023-01-20T00:04:04.815Z,3.30
2023-01-20T00:06:31.440Z,3.20
2023-01-20T00:08:58.075Z,3.20
2023-01-20T00:11:24.754Z,3.20
2023-01-20T00:13:51.361Z,2.80
2023-01-20T00:16:18.024Z,2.20
2023-01-20T00:18:44.700Z,2.50
2023-01-20T00:21:11.389Z,2.80
2023-01-20T00:23:38.003Z,2.60
2023-01-20T00:26:04.664Z,2.50
2023-01-20T00:28:31.303Z,2.70
2023-01-20T00:30:58.068Z,2.90
2023-01-20T00:33:24.883Z,2.50
2023-01-20T00:35:51.541Z,2.50
2023-01-20T00:38:18.250Z,2.70
2023-01-20T00:40:44.987Z,2.90
2023-01-20T00:43:12.664Z,2.70
2023-01-20T00:45:39.352Z,2.70
2023-01-20T00:48:06.037Z,2.90
2023-01-20T00:50:32.699Z,2.90
2023-01-20T00:52:59.336Z,2.70
2023-01-20T00:55:26.197Z,2.70
2023-01-20T00:57:52.803Z,2.20
2023-01-20T01:00:19.476Z,2.30
2023-01-20T01:02:46.143Z,2.20
2023-01-20T01:05:12.943Z,2.50
2023-01-20T01:07:39.718Z,2.80
2023-01-20T01:10:06.387Z,2.90
2023-01-20T01:12:33.065Z,3.00
2023-01-20T01:14:59.782Z,3.10
2023-01-20T01:17:26.415Z,3.00
2023-01-20T01:19:53.116Z,3.00
2023-01-20T01:22:19.817Z,3.00
2023-01-20T01:24:46.484Z,2.80
2023-01-20T01:27:13.137Z,2.60
2023-01-20T01:29:39.812Z,2.60
2023-01-20T01:34:50.838Z,2.70
2023-01-20T01:37:17.472Z,2.60
2023-01-20T01:39:44.180Z,2.30
2023-01-20T01:42:10.842Z,2.10
2023-01-20T01:44:37.507Z,2.10
2023-01-20T01:47:04.205Z,2.40
2023-01-20T01:49:30.859Z,2.50
2023-01-20T01:51:57.483Z,2.50
2023-01-20T01:54:24.136Z,2.40
2023-01-20T01:56:50.819Z,2.60
2023-01-20T01:59:17.537Z,2.20
2023-01-20T02:01:44.257Z,1.40
2023-01-20T02:04:11.004Z,1.70
2023-01-20T02:06:37.701Z,2.00
2023-01-20T02:09:04.479Z,2.30
2023-01-20T02:11:31.129Z,1.90
2023-01-20T02:13:57.808Z,1.90
2023-01-20T02:16:24.501Z,1.90
2023-01-20T02:18:51.584Z,1.90
2023-01-20T02:21:18.216Z,2.10
2023-01-20T02:23:44.922Z,2.30
2023-01-20T02:26:11.751Z,2.20
2023-01-20T02:28:38.391Z,1.90
2023-01-20T02:31:05.081Z,1.70
2023-01-20T02:33:31.762Z,1.70
2023-01-20T02:35:58.370Z,2.00
2023-01-20T02:38:25.020Z,2.20
2023-01-20T02:40:51.661Z,2.00
2023-01-20T02:43:18.335Z,2.10
2023-01-20T02:45:45.029Z,2.30
2023-01-20T02:48:11.751Z,2.10
2023-01-20T02:50:38.420Z,2.10
2023-01-20T02:53:05.034Z,2.30
2023-01-20T02:55:31.703Z,2.00
2023-01-20T02:57:58.331Z,1.80
2023-01-20T03:00:25.067Z,2.10
2023-01-20T03:02:51.681Z,2.20
2023-01-20T03:05:18.300Z,2.30
2023-01-20T03:07:44.905Z,2.30
2023-01-20T03:10:11.592Z,2.40
2023-01-20T03:12:38.267Z,2.30
2023-01-20T03:15:04.906Z,2.20
2023-01-20T03:17:31.551Z,2.20
2023-01-20T03:19:58.188Z,2.20
2023-01-20T03:22:24.892Z,2.20
2023-01-20T03:24:51.568Z,2.10
2023-01-20T03:27:18.189Z,2.00
2023-01-20T03:29:44.864Z,2.10
2023-01-20T03:32:11.527Z,2.10
2023-01-20T03:34:38.157Z,1.40
2023-01-20T03:37:04.843Z,1.40
2023-01-20T03:39:31.520Z,1.40
2023-01-20T03:41:58.397Z,1.50
2023-01-20T03:44:25.016Z,1.70
2023-01-20T03:46:51.723Z,1.80
2023-01-20T03:49:18.371Z,1.80
2023-01-20T03:51:45.066Z,1.90
2023-01-20T03:54:11.688Z,2.00
2023-01-20T03:56:38.363Z,2.00
2023-01-20T03:59:05.024Z,2.10
2023-01-20T04:01:31.726Z,2.10
2023-01-20T04:03:58.432Z,1.90
2023-01-20T04:06:25.067Z,1.60
2023-01-20T04:08:51.756Z,1.60
2023-01-20T04:11:18.441Z,1.60
2023-01-20T04:13:45.189Z,1.80
2023-01-20T04:16:11.914Z,1.90
2023-01-20T04:18:38.620Z,1.60
2023-01-20T04:21:05.318Z,1.70
2023-01-20T04:23:31.988Z,1.70
2023-01-20T04:25:58.690Z,1.80
2023-01-20T04:28:25.316Z,2.00
2023-01-20T04:30:52.103Z,2.10
2023-01-20T04:33:18.747Z,2.10
2023-01-20T04:35:45.435Z,2.10
2023-01-20T04:38:12.094Z,2.10
2023-01-20T04:40:38.756Z,2.00
2023-01-20T04:43:05.391Z,2.10
2023-01-20T04:45:32.069Z,1.80
2023-01-20T04:47:58.761Z,1.30
2023-01-20T04:50:25.463Z,1.30
2023-01-20T04:52:52.113Z,1.40
2023-01-20T04:55:18.755Z,1.40
2023-01-20T04:57:45.432Z,1.70
2023-01-20T05:00:12.118Z,1.50
2023-01-20T05:02:38.836Z,1.10
2023-01-20T05:05:05.516Z,1.30
2023-01-20T05:07:32.206Z,1.60
2023-01-20T05:09:58.892Z,1.70
2023-01-20T05:12:25.556Z,1.70
2023-01-20T05:14:52.205Z,1.70
2023-01-20T05:17:18.894Z,1.90
2023-01-20T05:19:45.553Z,2.00
2023-01-20T05:22:12.185Z,2.10
2023-01-20T05:24:38.893Z,2.20
2023-01-20T05:27:05.505Z,2.00
2023-01-20T05:29:32.145Z,2.10
2023-01-20T05:31:58.811Z,1.70
2023-01-20T05:34:25.495Z,1.50
2023-01-20T05:36:52.199Z,1.60
2023-01-20T05:39:18.892Z,1.90
2023-01-20T05:41:45.538Z,2.00
2023-01-20T05:44:12.228Z,2.10
2023-01-20T05:46:38.900Z,2.10
2023-01-20T05:49:05.562Z,1.90
2023-01-20T05:51:32.249Z,1.70
2023-01-20T05:53:58.890Z,1.90
2023-01-20T05:56:25.555Z,1.90
2023-01-20T05:58:52.227Z,2.00
2023-01-20T06:01:20.982Z,2.10
2023-01-20T06:03:47.738Z,2.20
2023-01-20T06:06:14.356Z,2.00
2023-01-20T06:08:41.023Z,1.70
2023-01-20T06:11:07.822Z,1.80
2023-01-20T06:13:34.459Z,1.70
2023-01-20T06:16:01.097Z,1.80
2023-01-20T06:18:27.759Z,1.90
2023-01-20T06:20:54.430Z,2.00
2023-01-20T06:23:21.274Z,1.90
2023-01-20T06:25:47.952Z,1.60
2023-01-20T06:28:14.564Z,1.50
2023-01-20T06:30:41.293Z,1.30
2023-01-20T06:33:07.989Z,1.50
2023-01-20T06:35:34.728Z,1.70
2023-01-20T06:38:01.396Z,1.60
2023-01-20T06:40:28.062Z,1.40
2023-01-20T06:42:54.737Z,1.40
2023-01-20T06:45:21.401Z,1.10
2023-01-20T06:47:48.085Z,1.20
2023-01-20T06:50:14.764Z,1.00
2023-01-20T06:52:41.468Z,1.00
2023-01-20T06:55:08.105Z,1.20
2023-01-20T06:57:34.864Z,1.00
2023-01-20T07:00:01.724Z,1.10
2023-01-20T07:02:28.475Z,1.20
2023-01-20T07:04:55.202Z,1.10
2023-01-20T07:07:21.869Z,1.10
2023-01-20T07:09:48.558Z,1.10
2023-01-20T07:12:15.310Z,1.00
2023-01-20T07:14:41.996Z,1.30
2023-01-20T07:17:08.701Z,1.10
2023-01-20T07:19:35.348Z,1.30
2023-01-20T07:22:01.985Z,1.20
2023-01-20T07:24:28.641Z,1.30
2023-01-20T07:26:55.273Z,1.30
2023-01-20T07:29:21.912Z,1.60
2023-01-20T07:31:48.578Z,1.70
2023-01-20T07:34:15.227Z,1.80
2023-01-20T07:36:41.838Z,1.60
2023-01-20T07:39:08.754Z,1.60
2023-01-20T07:41:35.488Z,1.80
2023-01-20T07:44:02.140Z,1.80
2023-01-20T07:46:28.744Z,2.00
2023-01-20T07:48:55.393Z,2.00
2023-01-20T07:51:22.068Z,2.10
2023-01-20T07:53:48.757Z,2.20
2023-01-20T07:56:15.460Z,2.40
2023-01-20T07:58:42.213Z,2.10
2023-01-20T08:01:08.959Z,2.30
2023-01-20T08:03:35.743Z,2.80
2023-01-20T08:06:02.415Z,3.00
2023-01-20T08:08:29.070Z,2.90
2023-01-20T08:10:55.764Z,3.20
2023-01-20T08:13:22.429Z,3.10
2023-01-20T08:15:49.118Z,2.60
2023-01-20T08:18:15.741Z,2.50
2023-01-20T08:20:42.409Z,2.40
2023-01-20T08:23:09.039Z,2.30
2023-01-20T08:25:35.649Z,2.60
2023-01-20T08:28:04.319Z,2.60
2023-01-20T08:30:32.141Z,2.60
2023-01-20T08:32:58.845Z,2.80
2023-01-20T08:35:25.520Z,2.80
2023-01-20T08:37:52.138Z,2.90
2023-01-20T08:40:18.800Z,3.20
2023-01-20T08:42:45.672Z,3.30
2023-01-20T08:45:12.684Z,3.40
2023-01-20T08:47:39.417Z,3.20
2023-01-20T08:50:06.058Z,3.00
2023-01-20T08:52:32.714Z,3.30
2023-01-20T08:54:59.405Z,3.10
2023-01-20T08:57:26.162Z,3.00
2023-01-20T08:59:52.847Z,2.80
2023-01-20T09:02:19.553Z,2.50
2023-01-20T09:04:46.174Z,2.70
2023-01-20T09:07:12.957Z,3.00
2023-01-20T09:09:39.857Z,2.90
2023-01-20T09:12:06.572Z,2.70
2023-01-20T09:14:33.196Z,3.00
2023-01-20T09:16:59.828Z,3.10
2023-01-20T09:19:26.434Z,3.20
2023-01-20T09:21:53.143Z,3.10
2023-01-20T09:24:19.778Z,3.00
2023-01-20T09:26:46.452Z,3.00
2023-01-20T09:29:13.123Z,2.90
2023-01-20T09:31:40.053Z,2.80
2023-01-20T09:34:06.853Z,2.90
2023-01-20T09:36:33.524Z,3.10
2023-01-20T09:39:00.130Z,3.30
2023-01-20T09:41:26.769Z,3.50
2023-01-20T09:43:53.371Z,3.80
2023-01-20T09:46:20.095Z,3.40
2023-01-20T09:48:46.708Z,3.70
2023-01-20T09:51:13.401Z,3.70
2023-01-20T09:53:40.033Z,3.70
2023-01-20T09:56:08.520Z,3.80
2023-01-20T09:58:35.281Z,3.70
2023-01-20T10:01:01.903Z,3.70
2023-01-20T10:03:32.694Z,4.00
2023-01-20T10:05:59.357Z,4.10
2023-01-20T10:08:26.002Z,3.80
2023-01-20T10:10:52.675Z,4.00
2023-01-20T10:13:19.325Z,4.20
2023-01-20T10:15:46.025Z,3.90
2023-01-20T10:18:12.715Z,3.70
2023-01-20T10:20:39.368Z,3.70
2023-01-20T10:23:06.069Z,3.80
2023-01-20T10:25:32.788Z,3.60
2023-01-20T10:27:59.471Z,3.60
2023-01-20T10:30:26.138Z,3.80
2023-01-20T10:32:52.840Z,3.90
2023-01-20T10:35:19.492Z,3.90
2023-01-20T10:37:46.220Z,3.80
2023-01-20T10:40:12.906Z,3.90
2023-01-20T10:42:39.625Z,3.80
2023-01-20T10:45:06.269Z,3.60
2023-01-20T10:47:32.891Z,3.60
2023-01-20T10:49:59.546Z,3.70
2023-01-20T10:52:26.209Z,3.70
2023-01-20T10:54:52.917Z,3.90
2023-01-20T10:57:19.669Z,4.10
2023-01-20T10:59:46.388Z,4.10
2023-01-20T11:02:13.064Z,4.00
2023-01-20T11:04:39.741Z,4.00
2023-01-20T11:07:06.407Z,4.20
2023-01-20T11:09:33.081Z,4.10
2023-01-20T11:11:59.820Z,4.00
2023-01-20T11:14:26.517Z,4.10
2023-01-20T11:16:55.617Z,3.80
2023-01-20T11:19:22.313Z,4.10
2023-01-20T11:21:48.976Z,3.90
2023-01-20T11:24:15.653Z,3.90
2023-01-20T11:26:42.374Z,4.00
2023-01-20T11:29:09.037Z,4.60
2023-01-20T11:31:35.882Z,4.50
2023-01-20T11:34:03.369Z,4.40
2023-01-20T11:36:30.084Z,3.90
2023-01-20T11:38:56.750Z,4.00
2023-01-20T11:41:23.397Z,4.20
2023-01-20T11:43:50.056Z,4.10
2023-01-20T11:46:16.721Z,4.20
2023-01-20T11:48:43.398Z,4.10
2023-01-20T11:51:10.004Z,4.30
2023-01-20T11:53:36.682Z,4.30
2023-01-20T11:56:05.385Z,4.60
2023-01-20T11:58:32.238Z,4.20
2023-01-20T12:00:58.914Z,4.60
2023-01-20T12:03:25.501Z,4.80
2023-01-20T12:05:54.767Z,4.90
2023-01-20T12:08:21.648Z,4.90
2023-01-20T12:10:48.374Z,4.60
2023-01-20T12:13:15.001Z,4.70
2023-01-20T12:15:41.648Z,4.60
2023-01-20T12:18:10.182Z,4.20
2023-01-20T12:20:49.225Z,4.10
2023-01-20T12:23:20.551Z,4.20
2023-01-20T12:25:47.186Z,4.20
2023-01-20T12:28:13.991Z,4.40
2023-01-20T12:30:40.715Z,4.30
2023-01-20T12:33:07.425Z,4.20
2023-01-20T12:35:34.132Z,4.30
2023-01-20T12:38:00.784Z,4.80
2023-01-20T12:40:27.433Z,4.70
2023-01-20T12:42:54.085Z,4.90
2023-01-20T12:45:20.776Z,4.70
2023-01-20T12:47:47.446Z,4.70
2023-01-20T12:50:14.450Z,4.60
2023-01-20T12:52:41.434Z,4.50
2023-01-20T12:55:08.126Z,4.30
2023-01-20T12:57:34.859Z,4.50
2023-01-20T13:00:01.582Z,5.00
2023-01-20T13:02:28.335Z,4.80
2023-01-20T13:04:54.989Z,4.90
2023-01-20T13:07:21.684Z,4.90
2023-01-20T13:09:48.345Z,4.90
2023-01-20T13:12:14.984Z,5.00
2023-01-20T13:14:41.671Z,5.30
2023-01-20T13:17:08.348Z,4.90
2023-01-20T13:19:35.026Z,5.00
2023-01-20T13:22:07.948Z,4.50
2023-01-20T13:24:34.975Z,4.90
2023-01-20T13:27:01.604Z,5.10
2023-01-20T13:29:28.237Z,5.30
2023-01-20T13:31:55.001Z,5.20
2023-01-20T13:34:21.724Z,5.30
2023-01-20T13:36:48.385Z,4.20
2023-01-20T13:39:15.042Z,4.40
2023-01-20T13:41:41.735Z,4.70
2023-01-20T13:44:08.453Z,4.80
2023-01-20T13:46:35.113Z,4.60
2023-01-20T13:49:01.798Z,4.30
2023-01-20T13:51:28.457Z,4.10
2023-01-20T13:53:55.114Z,4.30
2023-01-20T13:56:22.528Z,4.30
2023-01-20T13:58:49.177Z,4.50
2023-01-20T14:01:15.904Z,4.40
2023-01-20T14:03:42.572Z,4.60
2023-01-20T14:06:09.257Z,4.80
2023-01-20T14:08:35.906Z,4.80
2023-01-20T14:11:02.527Z,5.00
2023-01-20T14:13:29.177Z,5.40
2023-01-20T14:15:56.076Z,5.40
2023-01-20T14:18:22.873Z,5.20
2023-01-20T14:20:49.585Z,5.20
2023-01-20T14:23:16.253Z,5.00
2023-01-20T14:25:42.906Z,4.80
2023-01-20T14:28:09.587Z,4.70
2023-01-20T14:30:36.258Z,4.70
2023-01-20T14:33:02.918Z,4.60
2023-01-20T14:35:29.571Z,4.30
2023-01-20T14:37:56.186Z,4.20
2023-01-20T14:40:22.901Z,4.30
2023-01-20T14:42:49.583Z,4.30
2023-01-20T14:45:16.262Z,4.60
2023-01-20T14:47:42.851Z,4.50
2023-01-20T14:50:09.586Z,4.30
2023-01-20T14:52:36.346Z,4.40
2023-01-20T14:55:02.996Z,4.40
2023-01-20T14:57:29.633Z,4.30
2023-01-20T14:59:56.279Z,4.20
2023-01-20T15:02:22.970Z,4.30
2023-01-20T15:04:49.610Z,4.10
2023-01-20T15:07:16.312Z,4.50
2023-01-20T15:09:42.951Z,4.70
2023-01-20T15:12:09.616Z,4.70
2023-01-20T15:14:36.258Z,5.00
2023-01-20T15:17:02.920Z,5.20
2023-01-20T15:19:29.572Z,5.40
2023-01-20T15:21:56.292Z,5.00
2023-01-20T15:24:22.988Z,4.80
2023-01-20T15:26:49.606Z,4.70
2023-01-20T15:29:16.272Z,4.30
2023-01-20T15:31:42.967Z,4.70
2023-01-20T15:34:09.639Z,4.50
2023-01-20T15:36:36.251Z,4.50
2023-01-20T15:39:02.884Z,4.50
2023-01-20T15:41:29.535Z,4.60
2023-01-20T15:43:56.217Z,4.30
2023-01-20T15:46:22.883Z,4.30
2023-01-20T15:48:49.576Z,4.40
2023-01-20T15:51:16.294Z,4.40
2023-01-20T15:53:43.008Z,4.50
2023-01-20T15:56:09.655Z,4.50
2023-01-20T15:58:36.353Z,4.30
2023-01-20T16:01:03.094Z,4.30
2023-01-20T16:03:29.768Z,4.50
2023-01-20T16:05:56.519Z,4.80
2023-01-20T16:08:23.169Z,4.90
2023-01-20T16:10:49.926Z,5.00
2023-01-20T16:13:16.553Z,5.20
2023-01-20T16:15:43.228Z,5.40
2023-01-20T16:18:09.933Z,5.40
2023-01-20T16:20:36.548Z,5.20
2023-01-20T16:23:03.229Z,5.30
2023-01-20T16:25:29.895Z,5.30
2023-01-20T16:27:56.573Z,5.10
2023-01-20T16:30:23.193Z,5.30
2023-01-20T16:32:49.879Z,4.70
2023-01-20T16:35:16.533Z,4.90
2023-01-20T16:37:43.148Z,4.70
2023-01-20T16:40:09.802Z,4.70
2023-01-20T16:42:36.462Z,4.70
2023-01-20T16:45:03.131Z,4.50
2023-01-20T16:47:29.819Z,4.70
2023-01-20T16:49:56.521Z,5.10
2023-01-20T16:52:25.472Z,5.20
2023-01-20T16:54:52.109Z,5.20
2023-01-20T16:57:18.758Z,5.00
2023-01-20T16:59:45.421Z,5.10
2023-01-20T17:02:12.140Z,5.30
2023-01-20T17:04:38.837Z,5.20
2023-01-20T17:07:05.512Z,4.60
2023-01-20T17:09:32.202Z,4.40
2023-01-20T17:11:58.926Z,4.50
2023-01-20T17:14:25.575Z,4.60
2023-01-20T17:16:52.233Z,4.70
2023-01-20T17:19:18.857Z,4.90
2023-01-20T17:21:46.025Z,4.80
2023-01-20T17:24:12.709Z,4.70
2023-01-20T17:26:39.412Z,4.60
2023-01-20T17:29:06.055Z,4.60
2023-01-20T17:31:32.823Z,4.60
2023-01-20T17:33:59.561Z,4.40
2023-01-20T17:36:26.194Z,4.30
2023-01-20T17:38:52.841Z,4.60
2023-01-20T17:41:19.476Z,4.60
2023-01-20T17:43:46.221Z,4.60
2023-01-20T17:46:12.929Z,4.70
2023-01-20T17:48:39.602Z,4.80
2023-01-20T17:51:06.310Z,4.80
2023-01-20T17:53:33.015Z,4.80
2023-01-20T17:56:11.787Z,4.80
2023-01-20T17:58:39.640Z,4.70
2023-01-20T18:01:06.414Z,4.60
2023-01-20T18:03:33.085Z,4.60
2023-01-20T18:05:59.735Z,4.50
2023-01-20T18:08:26.409Z,4.50
2023-01-20T18:10:53.013Z,4.50
2023-01-20T18:13:19.707Z,4.60
2023-01-20T18:15:46.374Z,4.40
2023-01-20T18:18:13.034Z,4.10
2023-01-20T18:20:39.703Z,3.80
2023-01-20T18:23:06.416Z,3.90
2023-01-20T18:25:33.233Z,3.90
2023-01-20T18:27:59.923Z,3.60
2023-01-20T18:30:26.575Z,3.60
2023-01-20T18:32:53.220Z,3.70
2023-01-20T18:35:19.896Z,3.70
2023-01-20T18:37:46.542Z,4.00
2023-01-20T18:40:13.187Z,4.20
2023-01-20T18:42:39.861Z,4.40
2023-01-20T18:45:06.463Z,4.30
2023-01-20T18:47:33.122Z,4.00
2023-01-20T18:49:59.788Z,4.00
2023-01-20T18:52:26.463Z,4.10
2023-01-20T18:54:53.157Z,4.10
2023-01-20T18:57:19.780Z,3.90
2023-01-20T18:59:46.462Z,3.80
2023-01-20T19:02:13.122Z,3.70
2023-01-20T19:04:39.770Z,4.30
2023-01-20T19:07:06.385Z,4.60
2023-01-20T19:09:33.075Z,4.20
2023-01-20T19:11:59.680Z,3.90
2023-01-20T19:14:26.889Z,4.10
2023-01-20T19:16:53.615Z,4.40
2023-01-20T19:19:20.483Z,4.30
2023-01-20T19:21:47.147Z,4.20
2023-01-20T19:24:13.762Z,4.10
2023-01-20T19:26:40.461Z,4.20
2023-01-20T19:29:07.117Z,4.10
2023-01-20T19:31:33.885Z,4.20
2023-01-20T19:34:00.623Z,4.20
2023-01-20T19:36:27.265Z,4.20
2023-01-20T19:38:53.964Z,4.40
2023-01-20T19:41:20.662Z,4.20
2023-01-20T19:43:47.330Z,4.20
2023-01-20T19:46:14.243Z,3.80
2023-01-20T19:48:40.921Z,3.90
2023-01-20T19:51:07.619Z,4.20
2023-01-20T19:53:34.236Z,4.20
2023-01-20T19:56:00.888Z,4.30
2023-01-20T19:58:27.584Z,4.50
2023-01-20T20:00:54.312Z,4.20
2023-01-20T20:03:20.923Z,4.30
2023-01-20T20:05:47.562Z,4.20
2023-01-20T20:08:14.165Z,4.20
2023-01-20T20:10:40.850Z,4.30
2023-01-20T20:13:07.470Z,4.20
2023-01-20T20:15:34.188Z,4.40
2023-01-20T20:18:00.850Z,4.30
2023-01-20T20:20:27.767Z,4.40
2023-01-20T20:22:54.429Z,4.10
2023-01-20T20:25:21.090Z,4.00
2023-01-20T20:27:47.777Z,4.20
2023-01-20T20:30:14.513Z,4.10
2023-01-20T20:32:41.345Z,4.20
2023-01-20T20:35:07.979Z,4.50
2023-01-20T20:37:34.638Z,4.50
2023-01-20T20:40:01.321Z,4.80
2023-01-20T20:42:27.945Z,5.00
2023-01-20T20:44:54.594Z,5.00
2023-01-20T20:47:21.233Z,4.90
2023-01-20T20:49:47.913Z,4.30
2023-01-20T20:52:14.693Z,4.40
2023-01-20T20:54:41.394Z,4.40
2023-01-20T20:57:08.035Z,4.50
2023-01-20T20:59:34.747Z,4.40
2023-01-20T21:02:01.490Z,4.00
2023-01-20T21:04:28.198Z,3.70
2023-01-20T21:06:54.879Z,3.90
2023-01-20T21:09:21.668Z,4.10
2023-01-20T21:11:48.325Z,3.90
2023-01-20T21:14:14.963Z,4.00
2023-01-20T21:16:41.631Z,4.30
2023-01-20T21:19:08.289Z,3.90
2023-01-20T21:21:34.968Z,3.80
2023-01-20T21:24:01.596Z,3.90
2023-01-20T21:26:30.229Z,3.80
2023-01-20T21:28:57.397Z,3.70
2023-01-20T21:31:24.094Z,3.10
2023-01-20T21:33:50.770Z,3.00
2023-01-20T21:36:17.500Z,3.20
2023-01-20T21:38:44.187Z,3.60
2023-01-20T21:41:10.900Z,3.70
2023-01-20T21:43:37.592Z,3.60
2023-01-20T21:46:04.232Z,3.80
2023-01-20T21:48:30.895Z,4.10
2023-01-20T21:50:57.710Z,4.00
2023-01-20T21:53:24.445Z,3.80
2023-01-20T21:55:51.102Z,3.40
2023-01-20T21:58:17.808Z,3.50
2023-01-20T22:00:44.535Z,3.80
2023-01-20T22:03:11.239Z,3.90
2023-01-20T22:05:37.899Z,4.10
2023-01-20T22:08:04.574Z,4.20
2023-01-20T22:10:31.203Z,4.00
2023-01-20T22:12:57.866Z,4.10
2023-01-20T22:15:24.507Z,3.90
2023-01-20T22:17:51.140Z,3.90
2023-01-20T22:20:18.140Z,3.80
2023-01-20T22:22:45.042Z,3.70
2023-01-20T22:25:11.693Z,3.80
2023-01-20T22:27:38.292Z,3.90
2023-01-20T22:30:04.928Z,3.70
2023-01-20T22:32:31.565Z,3.70
2023-01-20T22:34:58.246Z,3.70
2023-01-20T22:37:24.936Z,3.90
2023-01-20T22:39:51.620Z,3.60
2023-01-20T22:42:18.384Z,3.20
2023-01-20T22:44:45.031Z,3.10
2023-01-20T22:47:11.733Z,3.40
2023-01-20T22:49:38.351Z,3.50
2023-01-20T22:52:04.994Z,3.60
2023-01-20T22:54:31.591Z,3.50
2023-01-20T22:56:58.189Z,3.50
2023-01-20T22:59:24.833Z,3.80
2023-01-20T23:01:51.515Z,4.00
2023-01-20T23:04:18.225Z,3.90
2023-01-20T23:06:44.879Z,3.70
2023-01-20T23:09:11.564Z,3.80
2023-01-20T23:11:38.423Z,3.90
2023-01-20T23:14:05.148Z,3.90
2023-01-20T23:16:31.852Z,4.00
2023-01-20T23:18:58.533Z,3.70
2023-01-20T23:21:25.281Z,3.60
2023-01-20T23:23:51.939Z,3.50
2023-01-20T23:26:18.559Z,3.40
2023-01-20T23:28:45.290Z,3.50
2023-01-20T23:31:11.945Z,3.30
2023-01-20T23:33:43.316Z,3.30
2023-01-20T23:36:10.277Z,3.50
2023-01-20T23:38:36.923Z,3.70
2023-01-20T23:41:03.565Z,3.40
2023-01-20T23:43:30.256Z,3.40
2023-01-20T23:45:57.000Z,3.50
2023-01-20T23:48:23.685Z,3.10
2023-01-20T23:50:50.308Z,2.80
2023-01-20T23:53:16.992Z,3.20
2023-01-20T23:55:43.647Z,3.50
2023-01-20T23:58:10.318Z,3.60
